• Join FlightAware (Why Join?)
  • Login
  • US Flag 
10:58PM EDT


 

Airport Tracker/Info


-or-


 

Live Flight TrackerFlight Track Log ✈ SWA962 ✈ 07-Apr-2012 ✈ KCHS - KBWI

Flight Track Log - Related Links

Times and Time Zones

All times are in EDT time to prevent confusion due to time zone crossing. See the SWA962 flight status page for this flight to view local times or setup timezone preferences in your user account.

Time Position Orientation Groundspeed Altitude Reporting Facility
EDT Latitude Longitude Course Direction KTS MPH feet Rate Location/Type
07:07AM 32.9797 -80.0300 16° North 194 223 4,300  Level Jacksonville Center
07:08AM 33.0458 -80.0081 29° Northeast 218 251 8,000 3,600 Climbing Jacksonville Center
07:09AM 33.1117 -79.9639 33° Northeast 245 282 11,600 3,300 Climbing Jacksonville Center
07:10AM 33.1875 -79.9042 32° Northeast 284 327 14,700 3,060 Climbing Jacksonville Center
07:11AM 33.2694 -79.8419 32° Northeast 321 369 17,800 2,820 Climbing Jacksonville Center
07:12AM 33.3556 -79.7767 33° Northeast 348 400 20,400 2,520 Climbing Jacksonville Center
07:13AM 33.4456 -79.7064 33° Northeast 367 422 22,900 1,260 Climbing Jacksonville Center
07:14AM 33.5378 -79.6333 32° Northeast 385 443 23,000 900 Climbing Jacksonville Center
07:15AM 33.6317 -79.5625 33° Northeast 385 443 24,800 1,980 Climbing Jacksonville Center
07:16AM 33.7197 -79.4942 31° Northeast 398 458 27,000 1,980 Climbing Jacksonville Center
07:17AM 33.8200 -79.4228 32° Northeast 403 464 28,800 1,680 Climbing Jacksonville Center
07:18AM 33.9242 -79.3436 25° Northeast 417 480 30,400 1,740 Climbing Jacksonville Center
07:19AM 34.0372 -79.2814 24° Northeast 429 494 32,300 1,800 Climbing Jacksonville Center
07:21AM 34.2392 -79.1717 27° Northeast 444 511 35,700 1,800 Climbing Washington Center
07:22AM 34.3561 -79.0986 23° Northeast 433 498 37,500 1,260 Climbing Washington Center
07:23AM 34.4664 -79.0431 25° Northeast 423 487 38,300 720 Climbing Washington Center
07:24AM 34.5767 -78.9819 24° Northeast 433 498 39,000 300 Climbing Washington Center
07:25AM 34.6931 -78.9186 24° Northeast 439 505 39,000  Level Washington Center
07:26AM 34.8033 -78.8575 24° Northeast 439 505 39,000  Level Washington Center
07:27AM 34.9133 -78.7986 24° Northeast 439 505 39,000  Level Washington Center
07:28AM 35.0256 -78.7369 25° Northeast 434 499 39,000  Level Washington Center
07:29AM 35.1356 -78.6753 24° Northeast 434 499 39,000  Level Washington Center
07:30AM 35.2458 -78.6158 24° Northeast 429 494 39,000  Level Washington Center
07:31AM 35.3472 -78.5611 25° Northeast 429 494 39,000  Level Washington Center
07:32AM 35.4678 -78.4917 24° Northeast 429 494 39,000  Level Washington Center
07:33AM 35.5672 -78.4367 24° Northeast 429 494 39,000  Level Washington Center
07:34AM 35.6919 -78.3669 25° Northeast 441 507 39,000 -480 Level Washington Center
07:35AM 35.8019 -78.3042 24° Northeast 441 507 38,100 -960 Descending Washington Center
07:36AM 35.9097 -78.2436 24° Northeast 428 493 37,100 -960 Descending Washington Center
07:37AM 36.0194 -78.1833 25° Northeast 422 486 36,200 -900 Descending Washington Center
07:38AM 36.1147 -78.1272 24° Northeast 422 486 35,400 -960 Descending Washington Center
07:39AM 36.2222 -78.0689 24° Northeast 422 486 34,400 -960 Descending Washington Center
07:40AM 36.3278 -78.0103 27° Northeast 417 480 33,500 -900 Descending Washington Center
07:41AM 36.4292 -77.9464 24° Northeast 415 478 32,600 -1,740 Descending Washington Center
07:42AM 36.5517 -77.8775 25° Northeast 410 472 30,000 -1,980 Descending Washington Center
07:43AM 36.6528 -77.8183 22° Northeast 405 466 28,700 -1,200 Descending Washington Center
07:44AM 36.7581 -77.7644 16° North 400 460 27,700 -1,020 Descending Washington Center
07:45AM 36.8631 -77.7258 17° North 400 460 26,700 -960 Descending Washington Center
07:46AM 36.9703 -77.6847 17° North 395 455 25,800 -960 Descending Washington Center
07:47AM 37.0731 -77.6458 17° North 388 447 24,800 -1,020 Descending Washington Center
07:48AM 37.1761 -77.6067 17° North 383 441 23,800 -960 Descending Washington Center
07:49AM 37.2769 -77.5678 17° North 383 441 23,000 -420 Descending Washington Center
07:50AM 37.3775 -77.5283 16° North 383 441 23,000  Level Washington Center
07:51AM 37.4783 -77.4917 17° North 383 441 23,000  Level Washington Center
07:52AM 37.5600 -77.4597 18° North 383 441 23,000  Level Washington Center
07:53AM 37.6692 -77.4153 16° North 383 441 23,000  Level Washington Center
07:54AM 37.7719 -77.3783 18° North 383 441 23,000  Level Washington Center
07:55AM 37.8706 -77.3386 17° North 383 441 23,000  Level Washington Center
07:56AM 37.9733 -77.2986 17° North 383 441 23,000 -120 Level Washington Center
07:57AM 38.0742 -77.2589 17° North 383 441 22,800 -1,260 Descending Washington Center
07:58AM 38.1706 -77.2214 17° North 378 435 20,500 -2,340 Descending Washington Center
07:59AM 38.2650 -77.1836 17° North 367 422 18,100 -2,340 Descending Washington Center
08:00AM 38.3528 -77.1486 36° Northeast 346 398 15,900 -1,800 Descending Washington Center
08:01AM 38.4353 -77.0733 43° Northeast 336 387 14,600 -1,800 Descending Washington Center
08:02AM 38.5028 -76.9925 43° Northeast 331 381 12,300 -1,800 Descending Washington Center
08:03AM 38.5706 -76.9114 43° Northeast 326 375 11,000 -1,020 Descending Washington Center
08:04AM 38.6317 -76.8381 43° Northeast 315 362 10,300 -720 Descending Washington Center
08:05AM 38.6867 -76.7725 60° Northeast 290 334 9,600 -900 Descending Washington Center
08:07AM 38.7500 -76.6333 63° Northeast 243 280 7,800 -1,080 Descending Potomac TRACON
08:08AM 38.7833 -76.5500 11° North 245 282 6,500 -1,140 Descending Potomac TRACON
08:09AM 38.8500 -76.5333 345° North 232 267 5,600 -1,020 Descending Potomac TRACON
08:10AM 38.9000 -76.5500 349° North 223 257 4,500 -840 Descending Potomac TRACON
08:11AM 38.9667 -76.5667 345° North 197 227 4,000 -720 Descending Potomac TRACON
08:12AM 39.0167 -76.5833 345° North 186 214 3,100 -840 Descending Potomac TRACON
08:13AM 39.0667 -76.6000 339° North 178 205 2,400 -780 Descending Potomac TRACON
08:14AM 39.1000 -76.6167 339° North 148 170 1,600 -780 Descending Potomac TRACON
08:15AM 39.1333 -76.6333 339° North 115 132 900 -720 Descending Potomac TRACON